Main page
METAR-TAF:

METAR-TAF

Airports :

Budapest Ferenc Liszt International Airport

Budapest, Hungary

latitude: 47-26N, longitude: 019-16E, elevation: 151 m

Current weather observation

The report was made 9 minutes ago, at 01:30 UTC
Wind 4 kt from the East/Southeast
Temperature 2°C
Humidity 80%
Pressure 1019 hPa
Visibility 10 km or more
no clouds below 1500 m and no cumulonimbus

METAR: LHBP 110130Z 11004KT CAVOK 02/M01 Q1019 NOSIG

Time: 03:39 (01:39 UTC)

Forecast

The report was made 2 hours and 24 minutes ago, at 23:15 UTC
Forecast valid from 11 at 00 UTC to 11 at 24 UTC
Wind 5 kt from the Southeast
Visibility 10 km or more
no clouds below 1500 m and no cumulonimbus
Becoming
from 11 at 09 UTC to 11 at 12 UTC
Wind 13 kt from the South/Southwest
Becoming
from 11 at 15 UTC to 11 at 17 UTC
Wind 4 kt from the South/Southeast

TAF: LHBP 102315Z 1100/1124 14005KT CAVOK BECMG 1109/1112 20013KT BECMG 1115/1117 16004KT

Weather observations and forecasts of more than 4000 airports (METAR and TAF reports).

The available stations are represented by yellow and red dots on the map.

Hover mouse over dot to see the name of the station.

Then click to see weather observations and forecasts.

To change the map : click on the green buttons with a black cross to zoom in, on the green button with a dash to zoom out, or on the green arrows for adjacent maps.


METAR-TAF: